createdAt,value
2018-08-17T00:00:57.664Z,77.88
2018-08-17T00:01:57.653Z,78.03
2018-08-17T00:02:57.652Z,78.23
2018-08-17T00:03:57.654Z,78.13
2018-08-17T00:04:57.646Z,78.42
2018-08-17T00:05:57.642Z,78.52
2018-08-17T00:06:57.640Z,76.78
2018-08-17T00:07:57.638Z,77.36
2018-08-17T00:08:57.634Z,79.10
2018-08-17T00:09:57.633Z,79.38
2018-08-17T00:10:57.630Z,79.38
2018-08-17T00:11:57.633Z,79.28
2018-08-17T00:12:57.624Z,79.58
2018-08-17T00:13:57.628Z,79.86
2018-08-17T00:14:57.626Z,80.06
2018-08-17T00:15:57.617Z,80.44
2018-08-17T00:16:57.613Z,80.25
2018-08-17T00:17:57.610Z,80.63
2018-08-17T00:18:57.608Z,80.54
2018-08-17T00:19:57.604Z,79.10
2018-08-17T00:20:57.601Z,78.61
2018-08-17T00:21:57.599Z,78.52
2018-08-17T00:22:57.597Z,79.19
2018-08-17T00:23:57.599Z,78.71
2018-08-17T00:24:57.591Z,77.75
2018-08-17T00:25:57.595Z,78.61
2018-08-17T00:26:57.591Z,78.81
2018-08-17T00:27:57.588Z,79.10
2018-08-17T00:28:57.584Z,78.23
2018-08-17T00:29:57.583Z,78.71
2018-08-17T00:30:57.577Z,79.19
2018-08-17T00:31:57.572Z,78.86
2018-08-17T00:32:57.567Z,79.38
2018-08-17T00:33:57.569Z,79.19
2018-08-17T00:34:57.564Z,79.53
2018-08-17T00:35:57.567Z,79.25
2018-08-17T00:36:57.561Z,79.25
2018-08-17T00:37:57.559Z,79.82
2018-08-17T00:38:57.557Z,79.53
2018-08-17T00:39:57.549Z,79.15
2018-08-17T00:40:57.547Z,78.19
2018-08-17T00:41:57.542Z,78.81
2018-08-17T00:42:57.541Z,78.38
2018-08-17T00:43:57.538Z,78.48
2018-08-17T00:44:57.537Z,77.90
2018-08-17T00:45:57.537Z,77.71
2018-08-17T00:46:57.529Z,76.94
2018-08-17T00:47:57.584Z,76.07
2018-08-17T00:48:57.526Z,77.51
2018-08-17T00:49:57.553Z,77.51
2018-08-17T00:50:57.519Z,78.77
2018-08-17T00:51:57.518Z,78.48
2018-08-17T00:52:57.512Z,79.63
2018-08-17T00:53:57.510Z,80.11
2018-08-17T00:54:57.512Z,80.69
2018-08-17T00:55:57.501Z,81.37
2018-08-17T00:56:57.506Z,82.23
2018-08-17T00:57:57.502Z,82.71
2018-08-17T00:58:57.499Z,82.23
2018-08-17T00:59:57.492Z,81.65
2018-08-17T01:00:57.493Z,81.17
2018-08-17T01:01:57.489Z,80.88
2018-08-17T01:02:57.483Z,80.98
2018-08-17T01:03:57.477Z,81.17
2018-08-17T01:04:57.476Z,80.79
2018-08-17T01:05:57.471Z,80.79
2018-08-17T01:06:57.468Z,80.69
2018-08-17T01:07:57.467Z,81.07
2018-08-17T01:08:57.467Z,81.27
2018-08-17T01:09:57.458Z,81.17
2018-08-17T01:10:57.462Z,81.07
2018-08-17T01:11:57.462Z,80.79
2018-08-17T01:12:57.456Z,81.07
2018-08-17T01:13:57.449Z,81.65
2018-08-17T01:14:57.480Z,81.94
2018-08-17T01:15:57.461Z,81.94
2018-08-17T01:16:57.442Z,82.32
2018-08-17T01:17:57.438Z,82.04
2018-08-17T01:18:57.434Z,82.23
2018-08-17T01:19:57.428Z,82.14
2018-08-17T01:20:57.430Z,81.84
2018-08-17T01:21:57.424Z,81.56
2018-08-17T01:22:57.424Z,81.94
2018-08-17T01:23:57.419Z,81.84
2018-08-17T01:24:57.421Z,81.94
2018-08-17T01:25:57.412Z,82.52
2018-08-17T01:26:57.414Z,82.52
2018-08-17T01:27:57.404Z,82.48
2018-08-17T01:28:57.400Z,82.09
2018-08-17T01:29:57.400Z,82.19
2018-08-17T01:30:57.394Z,82.57
2018-08-17T01:31:57.395Z,82.48
2018-08-17T01:32:57.392Z,83.25
2018-08-17T01:33:57.389Z,82.09
2018-08-17T01:34:57.381Z,82.38
2018-08-17T01:35:57.380Z,82.38
2018-08-17T01:36:57.374Z,82.96
2018-08-17T01:37:57.380Z,82.86
2018-08-17T01:38:57.373Z,82.96
2018-08-17T01:39:57.365Z,83.73
2018-08-17T01:40:57.363Z,84.50
2018-08-17T01:41:57.359Z,84.69
2018-08-17T01:42:57.360Z,84.59
2018-08-17T01:43:57.361Z,85.17
2018-08-17T01:44:57.350Z,85.36
2018-08-17T01:45:57.356Z,85.46
2018-08-17T01:46:57.350Z,85.55
2018-08-17T01:47:57.341Z,85.17
2018-08-17T01:48:57.340Z,85.36
2018-08-17T01:49:57.333Z,86.22
2018-08-17T01:50:57.341Z,86.22
2018-08-17T01:51:57.333Z,85.65
2018-08-17T01:52:57.322Z,86.13
2018-08-17T01:53:57.320Z,85.75
2018-08-17T01:54:57.317Z,86.13
2018-08-17T01:55:57.314Z,86.13
2018-08-17T01:56:57.313Z,85.94
2018-08-17T01:57:57.316Z,86.04
2018-08-17T01:58:57.308Z,86.22
2018-08-17T01:59:57.304Z,85.75
2018-08-17T02:00:57.295Z,86.22
2018-08-17T02:01:57.293Z,86.80
2018-08-17T02:02:57.295Z,87.29
2018-08-17T02:03:57.287Z,87.24
2018-08-17T02:04:57.284Z,87.34
2018-08-17T02:05:57.281Z,88.06
2018-08-17T02:06:57.277Z,87.62
2018-08-17T02:07:57.275Z,84.88
2018-08-17T02:08:57.269Z,84.50
2018-08-17T02:09:57.268Z,84.50
2018-08-17T02:10:57.264Z,84.69
2018-08-17T02:11:57.264Z,84.01
2018-08-17T02:12:57.254Z,83.53
2018-08-17T02:13:57.255Z,83.34
2018-08-17T02:14:57.253Z,82.96
2018-08-17T02:15:57.255Z,82.38
2018-08-17T02:16:57.247Z,82.96
2018-08-17T02:17:57.244Z,82.29
2018-08-17T02:18:57.238Z,82.29
2018-08-17T02:19:57.233Z,82.29
2018-08-17T02:20:57.235Z,82.38
2018-08-17T02:21:57.226Z,81.75
2018-08-17T02:22:57.227Z,82.96
2018-08-17T02:23:57.219Z,83.06
2018-08-17T02:24:57.214Z,82.96
2018-08-17T02:25:57.213Z,83.44
2018-08-17T02:26:57.209Z,83.73
2018-08-17T02:27:57.205Z,83.34
2018-08-17T02:28:57.201Z,83.44
2018-08-17T02:29:57.198Z,83.44
2018-08-17T02:30:57.202Z,83.15
2018-08-17T02:31:57.192Z,83.53
2018-08-17T02:32:57.188Z,83.63
2018-08-17T02:33:57.190Z,83.34
2018-08-17T02:34:57.182Z,83.06
2018-08-17T02:35:57.186Z,82.57
2018-08-17T02:36:57.176Z,82.48
2018-08-17T02:37:57.171Z,82.29
2018-08-17T02:38:57.169Z,81.81
2018-08-17T02:39:57.165Z,81.61
2018-08-17T02:40:57.161Z,81.52
2018-08-17T02:41:57.161Z,82.38
2018-08-17T02:42:57.157Z,83.15
2018-08-17T02:43:57.156Z,82.57
2018-08-17T02:44:57.146Z,82.86
2018-08-17T02:45:57.150Z,83.73
2018-08-17T02:46:57.141Z,83.73
2018-08-17T02:47:57.141Z,84.30
2018-08-17T02:48:57.132Z,84.55
2018-08-17T02:49:57.130Z,84.64
2018-08-17T02:50:57.132Z,84.59
2018-08-17T02:51:57.124Z,84.74
2018-08-17T02:52:57.127Z,84.78
2018-08-17T02:53:57.116Z,84.69
2018-08-17T02:54:57.113Z,84.59
2018-08-17T02:55:57.112Z,84.94
2018-08-17T02:56:57.105Z,85.22
2018-08-17T02:57:57.107Z,85.03
2018-08-17T02:58:57.105Z,85.41
2018-08-17T02:59:57.104Z,84.94
2018-08-17T03:00:57.093Z,85.32
2018-08-17T03:01:57.089Z,85.61
2018-08-17T03:02:57.087Z,86.09
2018-08-17T03:03:57.089Z,87.15
2018-08-17T03:04:57.078Z,87.34
2018-08-17T03:05:57.075Z,88.01
2018-08-17T03:06:57.079Z,88.87
2018-08-17T03:07:57.070Z,88.97
2018-08-17T03:08:57.072Z,89.74
2018-08-17T03:09:57.060Z,89.45
2018-08-17T03:10:57.062Z,89.26
2018-08-17T03:11:57.055Z,89.16
2018-08-17T03:12:57.052Z,88.97
2018-08-17T03:13:57.055Z,89.45
2018-08-17T03:14:57.050Z,89.64
2018-08-17T03:15:57.044Z,89.64
2018-08-17T03:16:57.047Z,90.22
2018-08-17T03:17:57.032Z,90.51
2018-08-17T03:18:57.027Z,90.99
2018-08-17T03:19:57.023Z,90.89
2018-08-17T03:20:57.020Z,90.51
2018-08-17T03:21:57.020Z,90.99
2018-08-17T03:22:57.013Z,90.12
2018-08-17T03:23:57.010Z,90.41
2018-08-17T03:24:57.006Z,90.70
2018-08-17T03:25:57.005Z,90.75
2018-08-17T03:26:57.008Z,90.56
2018-08-17T03:27:56.997Z,90.46
2018-08-17T03:28:56.996Z,90.17
2018-08-17T03:29:56.987Z,90.56
2018-08-17T03:30:56.984Z,90.84
2018-08-17T03:31:56.981Z,91.04
2018-08-17T03:32:56.983Z,91.61
2018-08-17T03:33:56.971Z,91.52
2018-08-17T03:34:56.968Z,90.66
2018-08-17T03:35:56.963Z,89.89
2018-08-17T03:36:56.966Z,89.02
2018-08-17T03:37:56.978Z,89.26
2018-08-17T03:38:56.960Z,88.10
2018-08-17T03:39:56.953Z,88.49
2018-08-17T03:40:56.945Z,88.59
2018-08-17T03:41:56.941Z,88.49
2018-08-17T03:42:56.939Z,88.20
2018-08-17T03:43:56.935Z,87.82
2018-08-17T03:44:56.936Z,87.72
2018-08-17T03:45:56.932Z,87.53
2018-08-17T03:46:56.927Z,88.01
2018-08-17T03:47:56.920Z,88.20
2018-08-17T03:48:56.920Z,87.53
2018-08-17T03:49:56.912Z,88.10
2018-08-17T03:50:56.908Z,87.43
2018-08-17T03:51:56.906Z,87.72
2018-08-17T03:52:56.903Z,88.10
2018-08-17T03:53:56.898Z,88.20
2018-08-17T03:54:56.893Z,88.30
2018-08-17T03:55:56.890Z,88.30
2018-08-17T03:56:56.888Z,89.07
2018-08-17T03:57:56.896Z,89.36
2018-08-17T03:58:56.879Z,89.45
2018-08-17T03:59:56.880Z,89.83
2018-08-17T04:00:56.885Z,89.54
2018-08-17T04:01:56.866Z,89.64
2018-08-17T04:02:56.870Z,89.36
2018-08-17T04:03:56.869Z,89.64
2018-08-17T04:04:56.861Z,90.22
2018-08-17T04:05:56.852Z,90.37
2018-08-17T04:06:56.852Z,90.41
2018-08-17T04:07:56.850Z,90.60
2018-08-17T04:08:56.846Z,90.27
2018-08-17T04:09:56.840Z,90.99
2018-08-17T04:10:56.836Z,90.89
2018-08-17T04:11:56.830Z,90.03
2018-08-17T04:12:56.832Z,89.64
2018-08-17T04:13:56.833Z,88.97
2018-08-17T04:14:56.821Z,88.97
2018-08-17T04:15:56.819Z,88.53
2018-08-17T04:16:56.816Z,88.20
2018-08-17T04:17:56.810Z,88.06
2018-08-17T04:18:56.804Z,87.96
2018-08-17T04:19:56.803Z,87.92
2018-08-17T04:20:56.794Z,88.06
2018-08-17T04:21:56.797Z,87.92
2018-08-17T04:22:56.789Z,88.49
2018-08-17T04:23:56.943Z,89.07
2018-08-17T04:24:56.782Z,89.64
2018-08-17T04:25:56.776Z,89.83
2018-08-17T04:26:56.773Z,90.12
2018-08-17T04:27:56.774Z,90.22
2018-08-17T04:28:56.766Z,90.89
2018-08-17T04:29:56.774Z,90.22
2018-08-17T04:30:56.763Z,90.51
2018-08-17T04:31:56.754Z,89.74
2018-08-17T04:32:56.750Z,90.22
2018-08-17T04:33:56.747Z,90.31
2018-08-17T04:34:56.750Z,90.22
2018-08-17T04:35:56.745Z,90.60
2018-08-17T04:36:56.736Z,90.80
2018-08-17T04:37:56.734Z,89.83
2018-08-17T04:38:56.732Z,90.22
2018-08-17T04:39:56.726Z,90.60
2018-08-17T04:40:56.727Z,90.51
2018-08-17T04:41:56.721Z,90.70
2018-08-17T04:42:56.714Z,90.22
2018-08-17T04:43:56.715Z,90.80
2018-08-17T04:44:56.705Z,90.12
2018-08-17T04:45:56.705Z,90.65
2018-08-17T04:46:56.702Z,90.36
2018-08-17T04:47:56.696Z,90.41
2018-08-17T04:48:56.690Z,90.41
2018-08-17T04:49:56.691Z,90.70
2018-08-17T04:50:56.691Z,91.13
2018-08-17T04:51:56.687Z,90.55
2018-08-17T04:52:56.683Z,90.94
2018-08-17T04:53:56.675Z,89.98
2018-08-17T04:54:56.670Z,90.36
2018-08-17T04:55:56.667Z,89.69
2018-08-17T04:56:56.664Z,89.88
2018-08-17T04:57:56.658Z,88.73
2018-08-17T04:58:56.657Z,89.40
2018-08-17T04:59:56.651Z,89.21
2018-08-17T05:00:56.645Z,88.63
2018-08-17T05:01:56.646Z,89.01
2018-08-17T05:02:56.641Z,88.92
2018-08-17T05:03:56.642Z,89.50
2018-08-17T05:04:56.631Z,89.40
2018-08-17T05:05:56.628Z,89.88
2018-08-17T05:06:56.625Z,89.40
2018-08-17T05:07:56.624Z,89.59
2018-08-17T05:08:56.657Z,89.21
2018-08-17T05:09:56.618Z,89.21
2018-08-17T05:10:56.612Z,89.30
2018-08-17T05:11:56.606Z,89.11
2018-08-17T05:12:56.606Z,89.21
2018-08-17T05:13:56.597Z,89.35
2018-08-17T05:14:56.602Z,88.57
2018-08-17T05:15:56.596Z,89.25
2018-08-17T05:16:56.588Z,89.06
2018-08-17T05:17:56.582Z,88.10
2018-08-17T05:18:56.581Z,88.57
2018-08-17T05:19:56.587Z,88.10
2018-08-17T05:20:56.572Z,87.81
2018-08-17T05:21:56.604Z,88.39
2018-08-17T05:22:56.566Z,88.39
2018-08-17T05:23:56.564Z,88.19
2018-08-17T05:24:56.559Z,88.29
2018-08-17T05:25:56.562Z,87.90
2018-08-17T05:26:56.558Z,87.66
2018-08-17T05:27:56.554Z,86.60
2018-08-17T05:28:56.549Z,86.22
2018-08-17T05:29:56.543Z,85.39
2018-08-17T05:30:56.539Z,84.91
2018-08-17T05:31:56.536Z,84.28
2018-08-17T05:32:56.533Z,83.89
2018-08-17T05:33:56.539Z,83.61
2018-08-17T05:34:56.529Z,83.12
2018-08-17T05:35:56.574Z,82.74
2018-08-17T05:36:56.524Z,82.29
2018-08-17T05:37:56.520Z,81.52
2018-08-17T05:38:56.521Z,81.04
2018-08-17T05:39:56.521Z,80.27
2018-08-17T05:40:56.517Z,80.27
2018-08-17T05:41:56.517Z,80.18
2018-08-17T05:42:56.514Z,80.08
2018-08-17T05:43:56.503Z,80.37
2018-08-17T05:44:56.524Z,80.76
2018-08-17T05:45:56.500Z,80.76
2018-08-17T05:46:56.497Z,80.27
2018-08-17T05:47:56.496Z,80.60
2018-08-17T05:48:56.496Z,80.60
2018-08-17T05:49:56.487Z,80.12
2018-08-17T05:50:56.485Z,80.22
2018-08-17T05:51:56.485Z,78.77
2018-08-17T05:52:56.487Z,78.38
2018-08-17T05:53:56.481Z,78.29
2018-08-17T05:54:56.578Z,78.96
2018-08-17T05:55:56.473Z,79.06
2018-08-17T05:56:56.475Z,78.42
2018-08-17T05:57:56.474Z,78.61
2018-08-17T05:58:56.466Z,78.03
2018-08-17T05:59:56.464Z,77.65
2018-08-17T06:00:56.463Z,76.98
2018-08-17T06:01:56.459Z,77.11
2018-08-17T06:02:56.538Z,76.50
2018-08-17T06:03:56.459Z,75.95
2018-08-17T06:04:56.556Z,76.05
2018-08-17T06:05:56.451Z,75.67
2018-08-17T06:06:56.452Z,75.37
2018-08-17T06:07:56.454Z,75.09
2018-08-17T06:08:56.447Z,74.31
2018-08-17T06:09:56.495Z,73.48
2018-08-17T06:10:56.506Z,73.48
2018-08-17T06:11:56.451Z,73.28
2018-08-17T06:12:56.439Z,73.38
2018-08-17T06:13:56.442Z,72.61
2018-08-17T06:14:56.437Z,72.84
2018-08-17T06:15:56.440Z,72.36
2018-08-17T06:16:56.440Z,71.68
2018-08-17T06:17:56.431Z,71.68
2018-08-17T06:18:56.428Z,70.32
2018-08-17T06:19:56.430Z,70.26
2018-08-17T06:20:56.425Z,69.88
2018-08-17T06:21:56.427Z,69.40
2018-08-17T06:22:56.424Z,68.56
2018-08-17T06:23:56.422Z,68.46
2018-08-17T06:24:56.419Z,68.08
2018-08-17T06:25:56.423Z,67.40
2018-08-17T06:26:56.417Z,67.69
2018-08-17T06:27:56.425Z,67.30
2018-08-17T06:28:56.420Z,67.69
2018-08-17T06:29:56.422Z,67.88
2018-08-17T06:30:56.414Z,67.49
2018-08-17T06:31:56.421Z,67.43
2018-08-17T06:32:56.411Z,67.69
2018-08-17T06:33:56.413Z,67.21
2018-08-17T06:34:56.409Z,67.21
2018-08-17T06:35:56.463Z,66.95
2018-08-17T06:36:56.409Z,67.14
2018-08-17T06:37:56.416Z,67.01
2018-08-17T06:38:56.412Z,67.05
2018-08-17T06:39:56.408Z,66.37
2018-08-17T06:40:56.404Z,66.17
2018-08-17T06:41:56.403Z,66.08
2018-08-17T06:42:56.404Z,65.59
2018-08-17T06:43:56.407Z,64.72
2018-08-17T06:44:56.403Z,65.01
2018-08-17T06:45:56.402Z,65.01
2018-08-17T06:46:56.403Z,65.50
2018-08-17T06:47:56.407Z,66.37
2018-08-17T06:48:56.403Z,66.75
2018-08-17T06:49:56.399Z,66.17
2018-08-17T06:50:56.476Z,66.30
2018-08-17T06:51:56.397Z,65.82
2018-08-17T06:52:56.399Z,66.20
2018-08-17T06:53:56.401Z,66.20
2018-08-17T06:54:56.401Z,66.20
2018-08-17T06:55:56.398Z,66.02
2018-08-17T06:56:56.454Z,65.43
2018-08-17T06:57:56.395Z,65.72
2018-08-17T06:58:56.396Z,65.34
2018-08-17T06:59:56.395Z,65.34
2018-08-17T07:00:56.392Z,65.17
2018-08-17T07:01:56.398Z,65.17
2018-08-17T07:02:56.396Z,64.40
2018-08-17T07:03:56.394Z,64.79
2018-08-17T07:04:56.396Z,64.30
2018-08-17T07:05:56.391Z,64.40
2018-08-17T07:06:56.406Z,64.01
2018-08-17T07:07:56.406Z,63.92
2018-08-17T07:08:56.459Z,64.11
2018-08-17T07:09:56.395Z,63.04
2018-08-17T07:10:56.397Z,62.95
2018-08-17T07:11:56.397Z,63.04
2018-08-17T07:12:56.398Z,62.88
2018-08-17T07:13:56.391Z,63.07
2018-08-17T07:14:56.392Z,62.98
2018-08-17T07:15:56.438Z,62.10
2018-08-17T07:16:56.394Z,62.01
2018-08-17T07:17:56.392Z,61.82
2018-08-17T07:18:56.397Z,61.91
2018-08-17T07:19:56.393Z,61.46
2018-08-17T07:20:56.392Z,62.04
2018-08-17T07:21:56.392Z,61.94
2018-08-17T07:22:56.395Z,61.55
2018-08-17T07:23:56.402Z,61.17
2018-08-17T07:24:56.397Z,61.17
2018-08-17T07:25:56.398Z,61.55
2018-08-17T07:26:56.394Z,60.58
2018-08-17T07:27:56.561Z,60.97
2018-08-17T07:28:56.395Z,60.30
2018-08-17T07:29:56.394Z,60.49
2018-08-17T07:30:56.396Z,60.13
2018-08-17T07:31:56.395Z,59.94
2018-08-17T07:32:56.396Z,59.45
2018-08-17T07:33:56.396Z,59.94
2018-08-17T07:34:56.397Z,59.64
2018-08-17T07:35:56.470Z,59.84
2018-08-17T07:36:56.398Z,59.97
2018-08-17T07:37:56.404Z,59.84
2018-08-17T07:38:56.404Z,59.74
2018-08-17T07:39:56.406Z,59.36
2018-08-17T07:40:56.404Z,59.94
2018-08-17T07:41:56.414Z,59.94
2018-08-17T07:42:56.410Z,59.94
2018-08-17T07:43:56.407Z,59.55
2018-08-17T07:44:56.407Z,59.74
2018-08-17T07:45:56.410Z,59.64
2018-08-17T07:46:56.408Z,60.13
2018-08-17T07:47:56.501Z,59.06
2018-08-17T07:48:56.413Z,59.58
2018-08-17T07:49:56.410Z,59.48
2018-08-17T07:50:56.412Z,59.09
2018-08-17T07:51:56.410Z,59.19
2018-08-17T07:52:56.415Z,58.61
2018-08-17T07:53:56.412Z,58.41
2018-08-17T07:54:56.412Z,58.41
2018-08-17T07:55:56.413Z,58.05
2018-08-17T07:56:56.414Z,58.83
2018-08-17T07:57:56.419Z,58.44
2018-08-17T07:58:56.429Z,56.82
2018-08-17T07:59:56.419Z,56.52
2018-08-17T08:00:56.421Z,57.11
2018-08-17T08:01:56.417Z,56.62
2018-08-17T08:02:56.421Z,55.98
2018-08-17T08:03:56.421Z,55.98
2018-08-17T08:04:56.422Z,56.07
2018-08-17T08:05:56.425Z,56.10
2018-08-17T08:06:56.425Z,56.26
2018-08-17T08:07:56.430Z,57.46
2018-08-17T08:08:56.426Z,58.14
2018-08-17T08:09:56.461Z,60.86
2018-08-17T08:10:56.439Z,61.44
2018-08-17T08:11:56.434Z,60.67
2018-08-17T08:12:56.432Z,63.29
2018-08-17T08:13:56.436Z,67.57
2018-08-17T08:14:56.442Z,65.20
2018-08-17T08:15:56.443Z,64.62
2018-08-17T08:16:56.441Z,64.62
2018-08-17T08:17:56.440Z,65.40
2018-08-17T08:18:56.442Z,66.27
2018-08-17T08:19:56.448Z,66.14
2018-08-17T08:20:56.451Z,68.96
2018-08-17T08:21:56.449Z,70.90
2018-08-17T08:22:56.448Z,70.57
2018-08-17T08:23:56.452Z,71.45
2018-08-17T08:24:56.457Z,73.20
2018-08-17T08:25:56.478Z,70.83
2018-08-17T08:26:56.460Z,72.19
2018-08-17T08:27:56.455Z,72.93
2018-08-17T08:28:56.464Z,70.51
2018-08-17T08:29:56.463Z,70.86
2018-08-17T08:30:56.461Z,71.83
2018-08-17T08:31:56.467Z,72.71
2018-08-17T08:32:56.465Z,73.48
2018-08-17T08:33:56.463Z,74.32
2018-08-17T08:34:56.464Z,71.99
2018-08-17T08:35:56.466Z,75.19
2018-08-17T08:36:56.465Z,77.12
2018-08-17T08:37:56.468Z,76.12
2018-08-17T08:38:56.475Z,79.41
2018-08-17T08:39:56.621Z,79.22
2018-08-17T08:40:56.474Z,76.51
2018-08-17T08:41:56.475Z,73.79
2018-08-17T08:42:56.473Z,77.67
2018-08-17T08:43:56.475Z,79.60
2018-08-17T08:44:56.472Z,79.99
2018-08-17T08:45:56.558Z,79.66
2018-08-17T08:46:56.476Z,80.47
2018-08-17T08:47:56.474Z,80.24
2018-08-17T08:48:56.479Z,80.15
2018-08-17T08:49:56.474Z,80.09
2018-08-17T08:50:56.481Z,80.28
2018-08-17T08:51:56.474Z,82.41
2018-08-17T08:52:56.481Z,79.41
2018-08-17T08:53:56.477Z,77.80
2018-08-17T08:54:56.476Z,75.19
2018-08-17T08:55:56.546Z,73.83
2018-08-17T08:56:56.476Z,71.83
2018-08-17T08:57:56.480Z,74.26
2018-08-17T08:58:56.481Z,72.02
2018-08-17T08:59:56.481Z,72.12
2018-08-17T09:00:56.485Z,72.12
2018-08-17T09:01:56.480Z,69.31
2018-08-17T09:02:56.485Z,70.28
2018-08-17T09:03:56.485Z,70.99
2018-08-17T09:04:56.489Z,71.28
2018-08-17T09:05:56.481Z,73.42
2018-08-17T09:06:56.487Z,74.81
2018-08-17T09:07:56.487Z,74.04
2018-08-17T09:08:56.484Z,71.70
2018-08-17T09:09:56.491Z,69.96
2018-08-17T09:10:56.486Z,71.42
2018-08-17T09:11:56.493Z,72.13
2018-08-17T09:12:56.493Z,69.41
2018-08-17T09:13:56.492Z,71.16
2018-08-17T09:14:56.491Z,68.54
2018-08-17T09:15:56.491Z,70.03
2018-08-17T09:16:56.491Z,69.15
2018-08-17T09:17:56.493Z,67.70
2018-08-17T09:18:56.497Z,67.50
2018-08-17T09:19:56.494Z,68.96
2018-08-17T09:20:56.499Z,69.25
2018-08-17T09:21:56.502Z,68.70
2018-08-17T09:22:56.504Z,67.73
2018-08-17T09:23:56.502Z,66.17
2018-08-17T09:24:56.501Z,67.93
2018-08-17T09:25:56.502Z,67.15
2018-08-17T09:26:56.506Z,66.56
2018-08-17T09:27:56.511Z,65.69
2018-08-17T09:28:56.505Z,66.56
2018-08-17T09:29:56.560Z,66.56
2018-08-17T09:30:56.512Z,66.66
2018-08-17T09:31:56.518Z,64.62
2018-08-17T09:32:56.518Z,67.28
2018-08-17T09:33:56.519Z,66.11
2018-08-17T09:34:56.515Z,65.43
2018-08-17T09:35:56.576Z,66.50
2018-08-17T09:36:56.518Z,68.19
2018-08-17T09:37:56.521Z,67.90
2018-08-17T09:38:56.529Z,66.05
2018-08-17T09:39:56.531Z,65.37
2018-08-17T09:40:56.524Z,65.37
2018-08-17T09:41:56.589Z,63.23
2018-08-17T09:42:56.529Z,63.03
2018-08-17T09:43:56.536Z,64.29
2018-08-17T09:44:56.540Z,65.01
2018-08-17T09:45:56.535Z,64.32
2018-08-17T09:46:56.536Z,64.20
2018-08-17T09:47:56.539Z,63.71
2018-08-17T09:48:56.543Z,60.79
2018-08-17T09:49:56.547Z,60.02
2018-08-17T09:50:56.550Z,60.34
2018-08-17T09:51:56.547Z,60.79
2018-08-17T09:52:56.549Z,60.21
2018-08-17T09:53:56.551Z,60.89
2018-08-17T09:54:56.553Z,60.99
2018-08-17T09:55:56.555Z,60.79
2018-08-17T09:56:56.563Z,60.02
2018-08-17T09:57:56.561Z,60.11
2018-08-17T09:58:56.567Z,59.23
2018-08-17T09:59:56.563Z,59.36
2018-08-17T10:00:56.565Z,59.63
2018-08-17T10:01:56.571Z,59.27
2018-08-17T10:02:56.572Z,59.27
2018-08-17T10:03:56.591Z,57.90
2018-08-17T10:04:56.577Z,57.81
2018-08-17T10:05:56.578Z,58.78
2018-08-17T10:06:56.580Z,58.10
2018-08-17T10:07:56.580Z,58.71
2018-08-17T10:08:56.588Z,59.88
2018-08-17T10:09:56.591Z,59.20
2018-08-17T10:10:56.586Z,57.18
2018-08-17T10:11:56.591Z,57.18
2018-08-17T10:12:56.591Z,55.62
2018-08-17T10:13:56.596Z,56.21
2018-08-17T10:14:56.595Z,56.60
2018-08-17T10:15:56.601Z,56.70
2018-08-17T10:16:56.599Z,56.70
2018-08-17T10:17:56.607Z,56.01
2018-08-17T10:18:56.606Z,55.36
2018-08-17T10:19:56.616Z,58.09
2018-08-17T10:20:56.804Z,57.99
2018-08-17T10:21:56.853Z,57.21
2018-08-17T10:22:56.617Z,56.43
2018-08-17T10:23:56.624Z,57.40
2018-08-17T10:24:56.631Z,56.33
2018-08-17T10:25:56.624Z,56.23
2018-08-17T10:26:56.625Z,55.85
2018-08-17T10:27:56.630Z,55.85
2018-08-17T10:28:56.631Z,54.90
2018-08-17T10:29:56.637Z,53.99
2018-08-17T10:30:56.637Z,53.92
2018-08-17T10:31:56.645Z,54.50
2018-08-17T10:32:56.641Z,54.50
2018-08-17T10:33:56.729Z,53.34
2018-08-17T10:34:56.691Z,53.24
2018-08-17T10:35:56.656Z,55.68
2018-08-17T10:36:56.657Z,53.73
2018-08-17T10:37:56.657Z,54.44
2018-08-17T10:38:56.667Z,54.21
2018-08-17T10:39:56.667Z,53.36
2018-08-17T10:40:56.668Z,52.68
2018-08-17T10:41:56.669Z,52.19
2018-08-17T10:42:56.685Z,52.07
2018-08-17T10:43:56.677Z,53.34
2018-08-17T10:44:56.683Z,51.41
2018-08-17T10:45:56.685Z,51.31
2018-08-17T10:46:56.690Z,51.21
2018-08-17T10:47:56.691Z,50.43
2018-08-17T10:48:56.769Z,52.97
2018-08-17T10:49:56.701Z,52.19
2018-08-17T10:50:56.698Z,51.12
2018-08-17T10:51:56.702Z,49.46
2018-08-17T10:52:56.707Z,50.24
2018-08-17T10:53:56.706Z,50.85
2018-08-17T10:54:56.712Z,50.16
2018-08-17T10:55:56.720Z,50.75
2018-08-17T10:56:56.716Z,49.68
2018-08-17T10:57:56.719Z,51.14
2018-08-17T10:58:56.722Z,50.46
2018-08-17T10:59:56.729Z,51.24
2018-08-17T11:00:56.728Z,49.10
2018-08-17T11:01:56.736Z,49.19
2018-08-17T11:02:56.742Z,49.49
2018-08-17T11:03:56.744Z,49.49
2018-08-17T11:04:56.747Z,50.16
2018-08-17T11:05:56.745Z,49.10
2018-08-17T11:06:56.750Z,47.73
2018-08-17T11:07:56.756Z,47.44
2018-08-17T11:08:56.756Z,48.73
2018-08-17T11:09:56.761Z,49.29
2018-08-17T11:10:56.778Z,47.53
2018-08-17T11:11:56.771Z,47.14
2018-08-17T11:12:56.773Z,47.92
2018-08-17T11:13:56.776Z,47.75
2018-08-17T11:14:56.779Z,49.12
2018-08-17T11:15:56.787Z,47.07
2018-08-17T11:16:56.820Z,47.85
2018-08-17T11:17:56.800Z,46.68
2018-08-17T11:18:56.791Z,46.19
2018-08-17T11:19:56.799Z,45.53
2018-08-17T11:20:56.799Z,45.51
2018-08-17T11:21:56.801Z,45.72
2018-08-17T11:22:56.842Z,46.41
2018-08-17T11:23:56.815Z,44.26
2018-08-17T11:24:56.817Z,43.48
2018-08-17T11:25:56.819Z,42.60
2018-08-17T11:26:56.824Z,42.58
2018-08-17T11:27:56.832Z,42.58
2018-08-17T11:28:56.836Z,42.97
2018-08-17T11:29:56.831Z,43.26
2018-08-17T11:30:56.834Z,43.07
2018-08-17T11:31:56.841Z,41.21
2018-08-17T11:32:56.842Z,41.38
2018-08-17T11:33:56.849Z,42.63
2018-08-17T11:34:56.852Z,42.83
2018-08-17T11:35:56.854Z,43.82
2018-08-17T11:36:56.856Z,43.46
2018-08-17T11:37:56.861Z,43.04
2018-08-17T11:38:56.863Z,43.26
2018-08-17T11:39:56.866Z,42.58
2018-08-17T11:40:56.870Z,41.41
2018-08-17T11:41:56.880Z,39.37
2018-08-17T11:42:56.881Z,39.08
2018-08-17T11:43:56.887Z,39.28
2018-08-17T11:44:56.884Z,38.69
2018-08-17T11:45:56.894Z,38.69
2018-08-17T11:46:56.894Z,39.00
2018-08-17T11:47:56.900Z,39.37
2018-08-17T11:48:56.905Z,39.16
2018-08-17T11:49:56.907Z,39.08
2018-08-17T11:50:56.908Z,39.14
2018-08-17T11:51:56.917Z,39.12
2018-08-17T11:52:56.919Z,40.09
2018-08-17T11:53:57.005Z,39.51
2018-08-17T11:54:56.929Z,40.48
2018-08-17T11:55:56.925Z,41.95
2018-08-17T11:56:56.930Z,42.63
2018-08-17T11:57:56.936Z,40.89
2018-08-17T11:58:56.936Z,41.67
2018-08-17T11:59:56.946Z,41.58
2018-08-17T12:00:56.944Z,39.94
2018-08-17T12:01:56.997Z,39.36
2018-08-17T12:02:56.951Z,39.16
2018-08-17T12:03:56.961Z,38.49
2018-08-17T12:04:56.956Z,38.79
2018-08-17T12:05:56.959Z,38.57
2018-08-17T12:06:56.971Z,39.04
2018-08-17T12:07:56.971Z,39.16
2018-08-17T12:08:56.974Z,39.26
2018-08-17T12:09:56.977Z,39.55
2018-08-17T12:10:56.986Z,39.36
2018-08-17T12:11:56.982Z,39.18
2018-08-17T12:12:56.987Z,38.90
2018-08-17T12:13:56.990Z,38.81
2018-08-17T12:14:56.993Z,38.04
2018-08-17T12:15:57.001Z,38.12
2018-08-17T12:16:56.999Z,38.24
2018-08-17T12:17:57.004Z,37.75
2018-08-17T12:18:57.009Z,37.06
2018-08-17T12:19:57.013Z,37.35
2018-08-17T12:20:57.014Z,37.37
2018-08-17T12:21:57.023Z,36.98
2018-08-17T12:22:57.030Z,36.59
2018-08-17T12:23:57.035Z,35.61
2018-08-17T12:24:57.056Z,34.94
2018-08-17T12:25:57.041Z,34.84
2018-08-17T12:26:57.042Z,35.22
2018-08-17T12:27:57.046Z,36.02
2018-08-17T12:28:57.054Z,36.02
2018-08-17T12:29:57.060Z,36.22
2018-08-17T12:30:57.061Z,36.61
2018-08-17T12:31:57.115Z,36.22
2018-08-17T12:32:57.067Z,37.49
2018-08-17T12:33:57.070Z,37.29
2018-08-17T12:34:57.081Z,35.85
2018-08-17T12:35:57.086Z,35.75
2018-08-17T12:36:57.083Z,35.06
2018-08-17T12:37:57.093Z,34.96
2018-08-17T12:38:57.101Z,35.16
2018-08-17T12:39:57.139Z,35.25
2018-08-17T12:40:57.104Z,34.65
2018-08-17T12:41:57.107Z,35.55
2018-08-17T12:42:57.117Z,35.35
2018-08-17T12:43:57.116Z,35.65
2018-08-17T12:44:57.124Z,35.06
2018-08-17T12:45:57.132Z,34.47
2018-08-17T12:46:57.132Z,35.63
2018-08-17T12:47:57.140Z,35.35
2018-08-17T12:48:57.140Z,35.24
2018-08-17T12:49:57.144Z,36.22
2018-08-17T12:50:57.152Z,35.24
2018-08-17T12:51:57.157Z,35.34
2018-08-17T12:52:57.159Z,33.18